Time;durP1;ratioP1;P1;durP2;ratioP2;P2;SDS_P1;SDS_P2;PMS_P1;PMS_P2;Temp;Humidity;BMP_temperature;BMP_pressure;BME280_temperature;BME280_humidity;BME280_pressure;Samples;Min_cycle;Max_cycle;Signal;HPM_P1;HPM_P2
2023/04/06 00:01:58;;;;;;;6.28;2.78;;;11.80;99.90;;;;;;7403911;19;20278;-71
2023/04/06 00:04:23;;;;;;;5.45;1.88;;;11.90;99.90;;;;;;7392731;19;19910;-71
2023/04/06 00:06:49;;;;;;;5.18;1.85;;;11.80;99.90;;;;;;7392951;19;20334;-71
2023/04/06 00:09:15;;;;;;;7.28;2.00;;;11.80;99.90;;;;;;7401637;19;19926;-70
2023/04/06 00:11:41;;;;;;;8.50;1.98;;;11.80;99.90;;;;;;7394596;19;19930;-71
2023/04/06 00:14:07;;;;;;;6.78;2.50;;;11.70;99.90;;;;;;7403265;19;20278;-71
2023/04/06 00:16:32;;;;;;;4.88;2.28;;;11.70;99.90;;;;;;7402905;19;20251;-71
2023/04/06 00:18:58;;;;;;;6.45;1.88;;;11.80;99.90;;;;;;7406854;19;20335;-70
2023/04/06 00:21:25;;;;;;;7.30;1.60;;;11.80;99.90;;;;;;7400712;19;19919;-71
2023/04/06 00:23:51;;;;;;;;;;;11.90;99.90;;;;;;7404381;19;19931;-70
2023/04/06 00:26:16;;;;;;;5.68;1.92;;;11.80;99.90;;;;;;7400734;19;19926;-71
2023/04/06 00:28:42;;;;;;;6.80;2.05;;;11.80;99.90;;;;;;7400755;19;19944;-71
2023/04/06 00:31:08;;;;;;;5.38;1.90;;;11.80;99.90;;;;;;7370856;19;19921;-71
2023/04/06 00:33:34;;;;;;;5.93;1.83;;;11.80;99.90;;;;;;7372795;19;20016;-73
2023/04/06 00:36:00;;;;;;;5.50;2.00;;;11.80;99.90;;;;;;7403052;19;19922;-70
2023/04/06 00:38:26;;;;;;;7.35;2.08;;;11.80;99.90;;;;;;7403976;19;19914;-70
2023/04/06 00:40:51;;;;;;;7.47;1.55;;;11.80;99.90;;;;;;7402816;19;19921;-71
2023/04/06 00:43:17;;;;;;;8.15;1.75;;;11.90;99.90;;;;;;7401014;19;19994;-71
2023/04/06 00:45:43;;;;;;;8.48;1.70;;;11.90;99.90;;;;;;7402174;19;19914;-71
2023/04/06 00:48:09;;;;;;;4.85;1.52;;;11.80;99.90;;;;;;7398741;19;19970;-70
2023/04/06 00:50:35;;;;;;;7.93;1.83;;;11.70;99.90;;;;;;7405207;19;19926;-71
2023/04/06 00:53:01;;;;;;;7.15;1.73;;;11.70;99.90;;;;;;7402557;19;19926;-71
2023/04/06 00:55:28;;;;;;;6.95;2.00;;;11.70;99.90;;;;;;7403370;19;20262;-71
2023/04/06 00:57:54;;;;;;;6.07;1.80;;;11.70;99.90;;;;;;7400483;19;20335;-71
2023/04/06 01:00:20;;;;;;;9.63;1.98;;;11.70;99.90;;;;;;7400287;19;19929;-70
2023/04/06 01:02:47;;;;;;;6.35;1.75;;;11.70;99.90;;;;;;7403384;19;19911;-71
2023/04/06 01:05:13;;;;;;;6.80;1.98;;;11.70;99.90;;;;;;7402868;19;20314;-71
2023/04/06 01:07:39;;;;;;;8.52;1.85;;;11.70;99.90;;;;;;7401705;19;19954;-71
2023/04/06 01:10:06;;;;;;;6.55;1.30;;;11.70;99.90;;;;;;7402131;19;20350;-71
2023/04/06 01:12:31;;;;;;;5.93;1.77;;;11.70;99.90;;;;;;7403109;19;19914;-71
2023/04/06 01:14:57;;;;;;;5.43;1.73;;;11.70;99.90;;;;;;7402841;19;19919;-70
2023/04/06 01:17:23;;;;;;;5.50;1.63;;;11.70;99.90;;;;;;7402342;19;20335;-70
2023/04/06 01:19:49;;;;;;;6.50;2.13;;;11.80;99.90;;;;;;7402088;19;20275;-71
2023/04/06 01:22:18;;;;;;;8.98;1.85;;;11.80;99.90;;;;;;7400525;19;19936;-70
2023/04/06 01:24:45;;;;;;;10.98;1.88;;;11.80;99.90;;;;;;7401719;19;19939;-71
2023/04/06 01:27:11;;;;;;;6.10;1.25;;;11.80;99.90;;;;;;7400610;19;19997;-71
2023/04/06 01:29:37;;;;;;;5.13;1.45;;;11.80;99.90;;;;;;7402809;19;19919;-71
2023/04/06 01:32:03;;;;;;;5.95;1.40;;;11.80;99.90;;;;;;7402185;19;19925;-71
2023/04/06 01:34:29;;;;;;;6.90;1.58;;;11.80;99.90;;;;;;7401135;19;19944;-70
2023/04/06 01:36:55;;;;;;;7.32;1.85;;;11.80;99.90;;;;;;7400784;19;19910;-70
2023/04/06 01:39:21;;;;;;;4.90;1.40;;;11.80;99.90;;;;;;7368392;19;19929;-70
2023/04/06 01:41:49;;;;;;;6.28;1.83;;;11.80;99.90;;;;;;7401034;19;20663;-71
2023/04/06 01:44:18;;;;;;;6.22;1.40;;;11.90;99.90;;;;;;7401077;19;19941;-71
2023/04/06 01:46:44;;;;;;;8.73;1.65;;;11.90;99.90;;;;;;7400044;19;19938;-71
2023/04/06 01:49:10;;;;;;;5.22;1.40;;;11.90;99.90;;;;;;7402358;19;19915;-71
2023/04/06 01:51:35;;;;;;;5.72;1.70;;;12.00;99.90;;;;;;7401120;19;20319;-70
2023/04/06 01:54:01;;;;;;;5.05;1.42;;;12.00;99.90;;;;;;7402895;19;19919;-71
2023/04/06 01:56:27;;;;;;;5.45;1.30;;;12.00;99.90;;;;;;7379501;19;19978;-70
2023/04/06 01:58:53;;;;;;;7.07;1.42;;;11.90;99.90;;;;;;7400640;19;19919;-72
2023/04/06 02:01:19;;;;;;;4.43;1.10;;;11.90;99.90;;;;;;7400677;19;19946;-71
2023/04/06 02:03:45;;;;;;;4.78;1.70;;;12.00;99.90;;;;;;7401440;19;20386;-70
2023/04/06 02:06:10;;;;;;;5.53;1.40;;;12.00;99.90;;;;;;7401473;19;19934;-71
2023/04/06 02:08:36;;;;;;;6.13;1.30;;;11.90;99.90;;;;;;7400882;19;19932;-71
2023/04/06 02:11:02;;;;;;;5.53;1.27;;;11.90;99.90;;;;;;7399011;19;19922;-71
2023/04/06 02:13:28;;;;;;;7.80;1.70;;;11.90;99.90;;;;;;7398397;19;19933;-70
2023/04/06 02:15:53;;;;;;;7.93;1.70;;;11.80;99.90;;;;;;7400710;19;19931;-71
2023/04/06 02:18:19;;;;;;;5.82;1.25;;;11.80;99.90;;;;;;7399647;19;19936;-71
2023/04/06 02:20:45;;;;;;;5.35;1.50;;;11.80;99.90;;;;;;7400839;19;19919;-70
2023/04/06 02:23:11;;;;;;;4.18;1.30;;;11.80;99.90;;;;;;7398712;19;19974;-70
2023/04/06 02:25:37;;;;;;;4.90;1.48;;;11.70;99.90;;;;;;7407547;19;20035;-70
2023/04/06 02:28:03;;;;;;;4.28;1.35;;;11.80;99.90;;;;;;7405809;19;19922;-70
2023/04/06 02:30:29;;;;;;;5.45;1.60;;;11.80;99.90;;;;;;7404047;19;19922;-71
2023/04/06 02:32:55;;;;;;;7.90;1.55;;;11.80;99.90;;;;;;7407460;19;20399;-71
2023/04/06 02:35:21;;;;;;;4.82;1.58;;;11.70;99.90;;;;;;7403682;19;20288;-71
2023/04/06 02:37:46;;;;;;;3.92;1.25;;;11.70;99.90;;;;;;7375136;19;19926;-71
2023/04/06 02:40:14;;;;;;;5.20;1.20;;;11.70;99.90;;;;;;7405826;19;19914;-71
2023/04/06 02:42:40;;;;;;;8.63;2.08;;;11.60;99.90;;;;;;7406391;19;19974;-71
2023/04/06 02:45:06;;;;;;;5.35;2.03;;;11.70;99.90;;;;;;7403708;19;20340;-71
2023/04/06 02:47:33;;;;;;;5.25;1.60;;;11.60;99.90;;;;;;7374052;19;20232;-70
2023/04/06 02:49:59;;;;;;;7.30;1.60;;;11.70;99.90;;;;;;7406816;19;19935;-70
2023/04/06 02:52:27;;;;;;;6.07;1.25;;;11.60;99.90;;;;;;7405806;19;20394;-71
2023/04/06 02:54:53;;;;;;;6.22;1.52;;;11.70;99.90;;;;;;7408251;19;19910;-71
2023/04/06 02:57:19;;;;;;;4.07;1.30;;;11.70;99.90;;;;;;7402995;19;19918;-70
2023/04/06 02:59:45;;;;;;;6.65;1.73;;;11.70;99.90;;;;;;7408579;19;19915;-72
2023/04/06 03:02:11;;;;;;;4.28;1.40;;;11.60;99.90;;;;;;7403840;19;19922;-71
2023/04/06 03:04:37;;;;;;;5.90;1.65;;;11.70;99.90;;;;;;7403662;19;19945;-71
2023/04/06 03:07:03;;;;;;;5.05;1.63;;;11.70;99.90;;;;;;7405363;19;19919;-72
2023/04/06 03:09:29;;;;;;;7.15;1.77;;;11.70;99.90;;;;;;7400938;19;19917;-71
2023/04/06 03:11:55;;;;;;;4.22;1.98;;;11.60;99.90;;;;;;7407877;19;20268;-71
2023/04/06 03:14:22;;;;;;;8.30;1.80;;;11.60;99.90;;;;;;7403835;19;20408;-71
2023/04/06 03:16:48;;;;;;;4.28;1.80;;;11.40;99.90;;;;;;7406645;19;20300;-71
2023/04/06 03:19:15;;;;;;;5.40;1.73;;;11.40;99.90;;;;;;7404654;19;19926;-71
2023/04/06 03:21:41;;;;;;;6.47;1.50;;;11.40;99.90;;;;;;7404688;19;19946;-71
2023/04/06 03:24:07;;;;;;;5.35;1.58;;;11.40;99.90;;;;;;7404285;19;20462;-72
2023/04/06 03:26:33;;;;;;;4.93;1.55;;;11.40;99.90;;;;;;7405014;19;19919;-72
2023/04/06 03:28:59;;;;;;;6.20;2.15;;;11.40;99.90;;;;;;7404071;19;19914;-71
2023/04/06 03:31:26;;;;;;;5.53;2.33;;;11.40;99.90;;;;;;7402398;19;19935;-70
2023/04/06 03:33:52;;;;;;;7.15;2.42;;;11.30;99.90;;;;;;7402569;19;20346;-71
2023/04/06 03:36:18;;;;;;;7.07;2.70;;;11.20;99.90;;;;;;7401745;19;19926;-71
2023/04/06 03:38:44;;;;;;;7.45;2.80;;;11.00;99.90;;;;;;7405019;19;19930;-70
2023/04/06 03:41:10;;;;;;;10.00;2.95;;;11.00;99.90;;;;;;7402137;19;19939;-71
2023/04/06 03:43:36;;;;;;;10.23;3.78;;;11.00;99.90;;;;;;7403685;19;19933;-71
2023/04/06 03:46:01;;;;;;;8.80;2.85;;;11.00;99.90;;;;;;7406371;19;19974;-71
2023/04/06 03:48:27;;;;;;;9.40;3.03;;;10.90;99.90;;;;;;7402277;19;19917;-72
2023/04/06 03:50:53;;;;;;;8.70;2.80;;;11.00;99.90;;;;;;7406411;19;20026;-71
2023/04/06 03:53:19;;;;;;;7.05;3.10;;;10.90;99.90;;;;;;7402632;19;20600;-71
2023/04/06 03:55:45;;;;;;;10.63;3.17;;;10.90;99.90;;;;;;7404624;19;19935;-72
2023/04/06 03:58:11;;;;;;;8.88;2.67;;;10.90;99.90;;;;;;7404515;19;19941;-71
2023/04/06 04:00:37;;;;;;;8.07;2.60;;;10.80;99.90;;;;;;7403975;19;19906;-71
2023/04/06 04:03:03;;;;;;;7.97;2.70;;;10.70;99.90;;;;;;7403134;19;19925;-71
2023/04/06 04:05:29;;;;;;;6.75;2.63;;;10.70;99.90;;;;;;7403030;19;19923;-72
2023/04/06 04:07:55;;;;;;;6.30;3.10;;;10.70;99.90;;;;;;7405075;19;20308;-72
2023/04/06 04:10:21;;;;;;;9.23;2.78;;;10.70;99.90;;;;;;7402055;19;20031;-71
2023/04/06 04:12:46;;;;;;;8.02;2.50;;;10.70;99.90;;;;;;7402114;19;19911;-71
2023/04/06 04:15:12;;;;;;;5.15;2.05;;;10.70;99.90;;;;;;7401287;19;19911;-71
2023/04/06 04:17:38;;;;;;;6.63;2.40;;;10.70;99.90;;;;;;7400887;19;19922;-70
2023/04/06 04:20:04;;;;;;;8.23;2.80;;;10.70;99.90;;;;;;7401722;19;20245;-71
2023/04/06 04:22:30;;;;;;;5.53;2.50;;;10.70;99.90;;;;;;7404182;19;19970;-72
2023/04/06 04:24:56;;;;;;;8.82;2.38;;;10.60;99.90;;;;;;7403376;19;19923;-71
2023/04/06 04:27:22;;;;;;;8.45;2.63;;;10.70;99.90;;;;;;7401243;19;19935;-71
2023/04/06 04:29:47;;;;;;;7.28;2.75;;;10.70;99.90;;;;;;7404225;19;19911;-71
2023/04/06 04:32:13;;;;;;;9.13;3.22;;;10.70;99.90;;;;;;7403884;19;20343;-71
2023/04/06 04:34:42;;;;;;;6.63;2.78;;;10.70;99.90;;;;;;7401092;19;19914;-72
2023/04/06 04:37:08;;;;;;;7.05;2.92;;;10.60;99.90;;;;;;7403145;19;20359;-70
2023/04/06 04:39:34;;;;;;;7.60;3.45;;;10.70;99.90;;;;;;7403583;19;19941;-71
2023/04/06 04:41:59;;;;;;;9.57;3.50;;;10.70;99.90;;;;;;7404601;19;19914;-72
2023/04/06 04:44:25;;;;;;;9.38;3.50;;;10.60;99.90;;;;;;7401311;19;19931;-70
2023/04/06 04:46:51;;;;;;;11.60;4.20;;;10.50;99.90;;;;;;7401298;19;19991;-72
2023/04/06 04:49:17;;;;;;;6.43;3.75;;;10.50;99.90;;;;;;7400449;19;19922;-71
2023/04/06 04:51:43;;;;;;;9.52;3.75;;;10.40;99.90;;;;;;7404838;19;19927;-70
2023/04/06 04:54:08;;;;;;;9.77;3.35;;;10.40;99.90;;;;;;7401090;19;21144;-71
2023/04/06 04:56:34;;;;;;;8.75;4.13;;;10.30;99.90;;;;;;7404000;19;20334;-71
2023/04/06 04:59:00;;;;;;;11.23;3.88;;;10.30;99.90;;;;;;7401911;19;20429;-72
2023/04/06 05:01:26;;;;;;;8.90;4.07;;;10.30;99.90;;;;;;7401257;19;19919;-72
2023/04/06 05:03:51;;;;;;;9.32;3.88;;;10.30;99.90;;;;;;7403089;19;19927;-70
2023/04/06 05:06:18;;;;;;;8.38;3.88;;;10.30;99.90;;;;;;7401599;19;19928;-71
2023/04/06 05:08:44;;;;;;;10.85;3.53;;;10.40;99.90;;;;;;7402272;19;19946;-71
2023/04/06 05:11:10;;;;;;;6.93;3.05;;;10.40;99.90;;;;;;7403368;19;19919;-72
2023/04/06 05:13:36;;;;;;;12.23;5.32;;;10.50;99.90;;;;;;7404095;19;19966;-71
2023/04/06 05:16:02;;;;;;;9.68;3.17;;;10.50;99.90;;;;;;7400987;19;20378;-71
2023/04/06 05:18:28;;;;;;;7.55;2.60;;;10.70;99.90;;;;;;7405075;19;19915;-72
2023/04/06 05:20:54;;;;;;;7.32;2.47;;;10.70;99.90;;;;;;7402600;19;19915;-72
2023/04/06 05:23:19;;;;;;;6.90;2.67;;;10.70;99.90;;;;;;7403146;19;19925;-72
2023/04/06 05:25:45;;;;;;;6.55;2.95;;;10.80;99.90;;;;;;7401030;19;19970;-72
2023/04/06 05:28:13;;;;;;;8.00;2.45;;;10.80;99.90;;;;;;7402810;19;19936;-71
2023/04/06 05:30:40;;;;;;;9.98;2.72;;;10.90;99.90;;;;;;7403214;19;19915;-71
2023/04/06 05:33:06;;;;;;;6.50;2.30;;;10.90;99.90;;;;;;7379345;19;19915;-71
2023/04/06 05:35:31;;;;;;;6.97;2.88;;;11.00;99.90;;;;;;7399336;19;19911;-71
2023/04/06 05:37:57;;;;;;;6.30;2.45;;;11.00;99.90;;;;;;7402819;19;19914;-71
2023/04/06 05:40:23;;;;;;;7.15;2.85;;;11.10;99.90;;;;;;7401221;19;19988;-72
2023/04/06 05:42:49;;;;;;;7.35;2.55;;;11.00;99.90;;;;;;7403545;19;20255;-70
2023/04/06 05:45:16;;;;;;;7.78;2.90;;;11.00;99.90;;;;;;7398597;19;19974;-71
2023/04/06 05:47:46;;;;;;;6.78;2.60;;;11.00;99.90;;;;;;7402587;19;19919;-71
2023/04/06 05:50:12;;;;;;;8.05;2.53;;;10.90;99.90;;;;;;7400656;19;20387;-72
2023/04/06 05:52:38;;;;;;;10.20;2.72;;;10.90;99.90;;;;;;7402637;19;19938;-71
2023/04/06 05:55:04;;;;;;;10.60;3.00;;;11.00;99.90;;;;;;7398473;19;19978;-71
2023/04/06 05:57:30;;;;;;;5.93;2.40;;;11.00;99.90;;;;;;7406874;19;20374;-72
2023/04/06 05:59:56;;;;;;;8.02;2.70;;;11.00;99.90;;;;;;7408744;19;19914;-71
2023/04/06 06:02:22;;;;;;;8.18;3.58;;;10.90;99.90;;;;;;7406458;19;19931;-72
2023/04/06 06:04:48;;;;;;;7.05;3.00;;;10.90;99.90;;;;;;7408678;19;19919;-73
2023/04/06 06:07:15;;;;;;;7.32;3.17;;;10.90;99.90;;;;;;7407748;19;19913;-71
2023/04/06 06:09:40;;;;;;;7.78;2.80;;;11.00;99.90;;;;;;7407649;19;19911;-72
2023/04/06 06:12:07;;;;;;;6.57;2.60;;;11.10;99.90;;;;;;7410972;19;20062;-72
2023/04/06 06:14:33;;;;;;;7.85;3.58;;;11.10;99.90;;;;;;7407751;19;19911;-71
2023/04/06 06:16:59;;;;;;;5.78;2.80;;;11.10;99.90;;;;;;7408542;19;19945;-71
2023/04/06 06:19:25;;;;;;;6.78;2.80;;;11.10;99.90;;;;;;7404435;19;19982;-72
2023/04/06 06:21:50;;;;;;;8.13;2.53;;;11.20;99.90;;;;;;7407067;19;19928;-72
2023/04/06 06:24:16;;;;;;;7.50;3.05;;;11.30;99.90;;;;;;7406273;19;19922;-72
2023/04/06 06:26:42;;;;;;;11.35;3.75;;;11.30;99.90;;;;;;7405980;19;19951;-71
2023/04/06 06:29:09;;;;;;;6.00;2.85;;;11.40;99.90;;;;;;7404853;19;19919;-71
2023/04/06 06:31:35;;;;;;;6.13;2.70;;;11.50;99.90;;;;;;7403798;19;19930;-71
2023/04/06 06:34:01;;;;;;;8.10;3.33;;;11.70;99.90;;;;;;7405959;19;19947;-72
2023/04/06 06:36:27;;;;;;;7.28;3.00;;;11.70;99.90;;;;;;7404163;19;19914;-71
2023/04/06 06:38:53;;;;;;;5.57;2.40;;;11.80;99.90;;;;;;7405545;19;20011;-72
2023/04/06 06:41:19;;;;;;;9.35;2.20;;;12.00;99.90;;;;;;7372643;19;20014;-73
2023/04/06 06:43:45;;;;;;;4.30;1.88;;;12.20;99.90;;;;;;7405772;19;19919;-72
2023/04/06 06:46:10;;;;;;;8.48;2.25;;;12.30;99.90;;;;;;7404415;19;19914;-72
2023/04/06 06:48:36;;;;;;;12.30;5.13;;;12.40;99.90;;;;;;7409289;19;19907;-72
2023/04/06 06:51:02;;;;;;;7.47;3.10;;;12.50;99.90;;;;;;7404582;19;19918;-71
2023/04/06 06:53:28;;;;;;;6.80;2.30;;;12.60;99.90;;;;;;7405897;19;19929;-72
2023/04/06 06:55:54;;;;;;;6.60;1.55;;;12.60;99.90;;;;;;7408112;19;19914;-71
2023/04/06 06:58:20;;;;;;;5.60;1.90;;;12.70;99.90;;;;;;7406257;19;19947;-71
2023/04/06 07:00:46;;;;;;;7.20;1.52;;;12.80;99.90;;;;;;7407374;19;19923;-71
2023/04/06 07:03:13;;;;;;;6.82;1.70;;;12.90;99.90;;;;;;7403748;19;20339;-72
2023/04/06 07:05:48;;;;;;;7.78;1.80;;;13.10;99.90;;;;;;7407216;19;19915;-71
2023/04/06 07:08:14;;;;;;;5.47;1.40;;;13.20;99.90;;;;;;7403681;19;19936;-72
2023/04/06 07:10:40;;;;;;;6.97;1.50;;;13.30;99.90;;;;;;7406821;19;19923;-72
2023/04/06 07:13:06;;;;;;;6.65;1.70;;;13.50;99.90;;;;;;7404202;19;19955;-71
2023/04/06 07:15:32;;;;;;;7.20;1.88;;;13.60;99.90;;;;;;7405851;19;19995;-72
2023/04/06 07:17:59;;;;;;;5.45;1.60;;;13.70;99.90;;;;;;7403691;19;19926;-73
2023/04/06 07:20:25;;;;;;;6.45;2.33;;;13.80;99.90;;;;;;7402766;19;19929;-73
2023/04/06 07:22:50;;;;;;;7.78;1.83;;;13.80;99.90;;;;;;7402410;19;19919;-72
2023/04/06 07:25:16;;;;;;;4.20;1.70;;;13.90;99.90;;;;;;7403822;19;19919;-71
2023/04/06 07:27:42;;;;;;;5.63;1.70;;;14.00;99.90;;;;;;7403669;19;19934;-73
2023/04/06 07:30:08;;;;;;;6.85;2.13;;;14.10;99.90;;;;;;7380440;19;19962;-72
2023/04/06 07:32:35;;;;;;;6.90;2.03;;;14.10;99.60;;;;;;7404175;19;19914;-74
2023/04/06 07:35:01;;;;;;;4.88;1.70;;;14.00;99.70;;;;;;7403420;19;19931;-72
2023/04/06 07:37:27;;;;;;;3.92;1.70;;;14.00;99.50;;;;;;7402744;19;19925;-72
2023/04/06 07:39:53;;;;;;;7.25;2.20;;;13.90;99.60;;;;;;7406749;19;19919;-72
2023/04/06 07:42:19;;;;;;;7.65;2.10;;;13.90;99.90;;;;;;7403809;19;19929;-72
2023/04/06 07:44:45;;;;;;;7.72;1.80;;;13.90;99.50;;;;;;7401249;19;19942;-72
2023/04/06 07:47:12;;;;;;;8.10;2.17;;;14.00;99.40;;;;;;7392191;19;19919;-72
2023/04/06 07:49:37;;;;;;;;;;;14.10;99.10;;;;;;7406382;19;19924;-71
2023/04/06 07:52:03;;;;;;;6.97;1.90;;;14.20;99.10;;;;;;7405766;19;19923;-75
2023/04/06 07:54:29;;;;;;;7.13;2.05;;;14.20;98.70;;;;;;7398053;19;19921;-72
2023/04/06 07:56:55;;;;;;;4.82;2.03;;;14.30;98.70;;;;;;7379387;19;20347;-73
2023/04/06 07:59:21;;;;;;;4.18;1.80;;;14.40;98.00;;;;;;7400898;19;19918;-71
2023/04/06 08:01:47;;;;;;;6.55;2.10;;;14.50;97.70;;;;;;7402788;19;19978;-73
2023/04/06 08:04:12;;;;;;;5.82;1.90;;;14.50;97.50;;;;;;7400579;19;19918;-77
2023/04/06 08:06:38;;;;;;;5.97;1.65;;;14.60;97.40;;;;;;7393627;19;19998;-72
2023/04/06 08:09:04;;;;;;;4.65;1.38;;;14.60;96.90;;;;;;7398090;19;19926;-73
2023/04/06 08:11:30;;;;;;;3.13;1.30;;;14.80;96.40;;;;;;7389882;19;20371;-72
2023/04/06 08:13:58;;;;;;;8.50;2.00;;;15.10;95.90;;;;;;7398022;19;19986;-72
2023/04/06 08:16:24;;;;;;;7.18;1.52;;;15.00;95.90;;;;;;7399558;19;19946;-72
2023/04/06 08:18:50;;;;;;;7.32;2.00;;;14.80;95.60;;;;;;7389468;19;19918;-72
2023/04/06 08:21:16;;;;;;;4.05;1.83;;;15.00;95.50;;;;;;7391219;19;19929;-73
2023/04/06 08:23:42;;;;;;;8.95;2.20;;;15.10;95.80;;;;;;7390133;19;19914;-72
2023/04/06 08:26:07;;;;;;;6.57;2.10;;;15.30;95.00;;;;;;7391800;19;20540;-72
2023/04/06 08:28:34;;;;;;;4.32;1.30;;;15.20;94.70;;;;;;7398389;19;19919;-72
2023/04/06 08:31:04;;;;;;;7.72;1.52;;;15.50;94.40;;;;;;7402338;19;20784;-72
2023/04/06 08:33:35;;;;;;;8.88;1.52;;;15.80;94.00;;;;;;7402121;19;20002;-71
2023/04/06 08:36:11;;;;;;;5.28;1.60;;;15.60;94.70;;;;;;7387736;19;19918;-71
2023/04/06 08:38:37;;;;;;;7.47;1.48;;;15.50;94.70;;;;;;7400729;19;19921;-72
2023/04/06 08:41:10;;;;;;;7.10;1.85;;;15.40;95.00;;;;;;7394187;19;19918;-71
2023/04/06 08:43:47;;;;;;;8.13;2.10;;;15.60;94.70;;;;;;7405107;19;19915;-72
2023/04/06 08:46:14;;;;;;;4.95;1.75;;;15.70;94.10;;;;;;7400875;19;19927;-72
2023/04/06 08:48:41;;;;;;;8.50;1.92;;;15.90;94.10;;;;;;7402011;19;19910;-72
2023/04/06 08:51:09;;;;;;;6.75;2.60;;;15.90;93.80;;;;;;7397948;19;20263;-72
2023/04/06 08:53:35;;;;;;;5.85;1.80;;;15.70;94.50;;;;;;7395217;19;19915;-71
2023/04/06 08:56:02;;;;;;;6.88;2.00;;;15.70;94.80;;;;;;7384932;19;19923;-71
2023/04/06 08:58:35;;;;;;;4.38;1.48;;;15.90;94.40;;;;;;7395653;19;19922;-71
2023/04/06 09:01:03;;;;;;;4.60;1.48;;;16.00;94.10;;;;;;7401371;19;19922;-71
2023/04/06 09:03:30;;;;;;;5.57;1.45;;;16.00;93.80;;;;;;7402368;19;19970;-72
2023/04/06 09:05:56;;;;;;;6.03;1.92;;;16.00;93.90;;;;;;7405378;19;19914;-73
2023/04/06 09:08:22;;;;;;;4.28;1.73;;;17.20;93.60;;;;;;7398282;19;19943;-72
2023/04/06 09:10:48;;;;;;;9.52;2.58;;;17.40;92.20;;;;;;7400523;19;19922;-72
2023/04/06 09:13:14;;;;;;;7.25;1.83;;;18.00;91.50;;;;;;7400808;19;19915;-71
2023/04/06 09:15:40;;;;;;;7.38;1.95;;;18.50;90.70;;;;;;7401655;19;19990;-72
2023/04/06 09:18:07;;;;;;;5.60;1.92;;;18.60;89.30;;;;;;7399038;19;19926;-71
2023/04/06 09:20:33;;;;;;;5.88;1.88;;;19.20;88.50;;;;;;7396559;19;19942;-73
2023/04/06 09:22:59;;;;;;;6.82;1.90;;;19.00;88.30;;;;;;7401814;19;19918;-73
2023/04/06 09:25:26;;;;;;;6.47;2.38;;;19.00;86.20;;;;;;7400972;19;19914;-72
2023/04/06 09:28:03;;;;;;;6.40;2.13;;;19.40;88.60;;;;;;7397996;19;19922;-72
2023/04/06 09:30:29;;;;;;;7.40;1.73;;;20.10;83.40;;;;;;7397639;19;19918;-73
2023/04/06 09:32:57;;;;;;;6.60;2.00;;;19.20;84.10;;;;;;7401156;19;19918;-71
2023/04/06 09:35:26;;;;;;;7.38;2.95;;;19.90;82.90;;;;;;7396907;19;20320;-72
2023/04/06 09:37:53;;;;;;;6.45;2.22;;;18.90;85.40;;;;;;7400800;19;19910;-72
2023/04/06 09:40:20;;;;;;;6.75;2.50;;;18.50;87.40;;;;;;7397236;19;20529;-72
2023/04/06 09:42:47;;;;;;;7.93;2.22;;;19.00;86.80;;;;;;7397313;19;20005;-72
2023/04/06 09:45:14;;;;;;;9.27;2.25;;;18.50;87.70;;;;;;7398143;19;20436;-72
2023/04/06 09:47:44;;;;;;;8.05;2.40;;;16.80;90.70;;;;;;7346683;19;20355;-72
2023/04/06 09:50:12;;;;;;;6.90;2.50;;;16.90;92.00;;;;;;7396308;19;19911;-72
2023/04/06 09:52:50;;;;;;;12.38;2.60;;;17.40;90.70;;;;;;7400927;19;20369;-73
2023/04/06 09:55:36;;;;;;;7.15;2.80;;;17.30;90.50;;;;;;7399409;19;19915;-71
2023/04/06 09:58:06;;;;;;;10.82;2.45;;;18.10;90.10;;;;;;7397117;19;19919;-73
2023/04/06 10:00:45;;;;;;;5.97;2.70;;;17.50;89.20;;;;;;7347570;19;19911;-72
2023/04/06 10:03:38;;;;;;;7.93;3.03;;;18.80;87.40;;;;;;7397962;19;20263;-72
2023/04/06 10:06:09;;;;;;;7.55;2.42;;;18.60;85.30;;;;;;7395261;19;19918;-72
2023/04/06 10:08:40;;;;;;;6.03;1.85;;;19.90;82.90;;;;;;7394611;19;19915;-72
2023/04/06 10:11:07;;;;;;;9.23;2.50;;;19.20;79.80;;;;;;7397621;19;19918;-73
2023/04/06 10:13:33;;;;;;;7.78;2.58;;;19.40;81.20;;;;;;7401910;19;20251;-72
2023/04/06 10:16:03;;;;;;;10.35;3.03;;;19.30;80.50;;;;;;7400756;19;19922;-72
2023/04/06 10:18:30;;;;;;;12.77;2.70;;;18.30;83.60;;;;;;7400702;19;19907;-71
2023/04/06 10:21:11;;;;;;;8.50;2.30;;;18.00;84.20;;;;;;7398583;19;19914;-74
2023/04/06 10:23:48;;;;;;;11.23;2.72;;;18.60;84.00;;;;;;7398099;19;19953;-76
2023/04/06 10:26:20;;;;;;;8.88;2.47;;;19.00;81.20;;;;;;7394875;19;19935;-73
2023/04/06 10:28:47;;;;;;;7.35;2.67;;;18.80;83.10;;;;;;7399388;19;19926;-74
2023/04/06 10:31:14;;;;;;;8.95;2.47;;;17.90;84.30;;;;;;7396959;19;19914;-75
2023/04/06 10:33:41;;;;;;;7.28;2.22;;;17.80;85.80;;;;;;7398422;19;19936;-73
2023/04/06 10:36:13;;;;;;;;;;;17.60;88.60;;;;;;7400166;19;19923;-74
2023/04/06 10:38:40;;;;;;;5.25;2.03;;;17.00;90.50;;;;;;7398841;19;19994;-72
2023/04/06 10:41:07;;;;;;;8.10;2.20;;;16.50;91.50;;;;;;7397905;19;19986;-73
2023/04/06 10:43:37;;;;;;;8.23;2.65;;;17.80;90.20;;;;;;7399848;19;19991;-73
2023/04/06 10:46:05;;;;;;;6.38;2.25;;;17.60;90.40;;;;;;7401493;19;19919;-72
2023/04/06 10:48:41;;;;;;;8.30;2.28;;;18.00;90.00;;;;;;7404839;19;19931;-73
2023/04/06 10:51:18;;;;;;;9.05;2.78;;;17.50;90.30;;;;;;7404784;19;19974;-74
2023/04/06 10:53:49;;;;;;;10.73;3.95;;;17.90;90.40;;;;;;7395198;19;19945;-73
2023/04/06 10:56:16;;;;;;;8.68;3.58;;;17.20;91.70;;;;;;7401904;19;21576;-73
2023/04/06 10:58:55;;;;;;;10.05;3.75;;;17.50;91.80;;;;;;7399173;19;19982;-73
2023/04/06 11:01:24;;;;;;;10.27;3.80;;;17.10;92.20;;;;;;7401936;19;19914;-71
2023/04/06 11:03:52;;;;;;;10.13;3.90;;;17.10;92.20;;;;;;7406367;19;19944;-72
2023/04/06 11:06:29;;;;;;;8.90;3.70;;;16.90;92.50;;;;;;7399781;19;20303;-73
2023/04/06 11:08:55;;;;;;;11.85;3.83;;;17.70;92.60;;;;;;7387957;19;19914;-73
2023/04/06 11:11:23;;;;;;;;;;;18.20;90.50;;;;;;7401718;19;19921;-73
2023/04/06 11:13:51;;;;;;;12.27;4.38;;;18.00;90.80;;;;;;7403360;19;19927;-73
2023/04/06 11:16:21;;;;;;;8.43;3.53;;;17.80;91.00;;;;;;7396219;19;19943;-72
2023/04/06 11:18:50;;;;;;;9.75;4.28;;;17.20;91.70;;;;;;7399144;19;20250;-72
2023/04/06 11:21:15;;;;;;;10.02;3.72;;;18.10;91.10;;;;;;7397414;19;19926;-73
2023/04/06 11:23:41;;;;;;;8.63;4.57;;;18.00;90.50;;;;;;7402302;19;20441;-73
2023/04/06 11:26:14;;;;;;;11.55;3.97;;;17.70;91.40;;;;;;7403649;19;19927;-74
2023/04/06 11:28:43;;;;;;;8.90;4.25;;;17.70;91.70;;;;;;7391413;19;19913;-73
2023/04/06 11:31:10;;;;;;;10.13;4.32;;;17.80;91.80;;;;;;7404656;19;19929;-73
2023/04/06 11:33:40;;;;;;;12.82;3.35;;;17.70;92.10;;;;;;7405462;19;19918;-73
2023/04/06 11:36:07;;;;;;;8.73;3.05;;;17.90;91.40;;;;;;7405720;19;19918;-72
2023/04/06 11:38:33;;;;;;;13.15;3.60;;;18.60;90.50;;;;;;7399406;19;19910;-72
2023/04/06 11:41:01;;;;;;;8.32;2.92;;;18.50;89.90;;;;;;7388305;19;19935;-75
2023/04/06 11:43:31;;;;;;;10.15;3.28;;;18.20;90.30;;;;;;7392243;19;19911;-73
2023/04/06 11:46:02;;;;;;;8.63;3.30;;;19.40;88.50;;;;;;7394580;19;19922;-75
2023/04/06 11:48:28;;;;;;;10.15;2.75;;;19.20;87.80;;;;;;7396352;19;19911;-73
2023/04/06 11:51:00;;;;;;;10.75;2.75;;;19.80;85.40;;;;;;7399107;19;19999;-73
2023/04/06 11:53:28;;;;;;;12.75;3.28;;;19.80;85.10;;;;;;7400019;19;19929;-73
2023/04/06 11:55:55;;;;;;;7.30;3.50;;;20.50;82.80;;;;;;7400647;19;20241;-74
2023/04/06 11:58:20;;;;;;;10.57;3.03;;;18.10;90.00;;;;;;7400473;19;20041;-74
2023/04/06 12:00:46;;;;;;;4.18;2.38;;;19.60;87.20;;;;;;7395411;19;19942;-73
2023/04/06 12:03:12;;;;;;;6.63;2.95;;;20.70;84.30;;;;;;7402408;19;19926;-73
2023/04/06 12:05:38;;;;;;;8.07;2.92;;;20.90;82.50;;;;;;7399401;19;20335;-71
2023/04/06 12:08:04;;;;;;;8.15;2.83;;;20.30;83.60;;;;;;7401308;19;19934;-73
2023/04/06 12:10:30;;;;;;;9.23;3.50;;;20.20;83.90;;;;;;7405225;19;19922;-72
2023/04/06 12:12:56;;;;;;;7.57;2.33;;;20.40;83.20;;;;;;7404278;19;19918;-72
2023/04/06 12:15:22;;;;;;;8.27;2.45;;;19.00;86.10;;;;;;7399321;19;19935;-73
2023/04/06 12:17:49;;;;;;;10.40;2.60;;;18.40;89.60;;;;;;7402199;19;19963;-72
2023/04/06 12:20:15;;;;;;;6.63;2.65;;;18.10;90.70;;;;;;7401637;19;19922;-72
2023/04/06 12:22:41;;;;;;;17.95;6.50;;;18.00;91.00;;;;;;7402088;19;19920;-74
2023/04/06 12:25:07;;;;;;;20.70;7.07;;;18.10;90.80;;;;;;7403687;19;19919;-73
2023/04/06 12:27:33;;;;;;;7.45;2.95;;;18.60;90.50;;;;;;7406015;19;19930;-73
2023/04/06 12:29:59;;;;;;;7.38;2.58;;;17.70;90.80;;;;;;7397729;19;19914;-72
2023/04/06 12:32:25;;;;;;;8.07;2.63;;;17.90;90.70;;;;;;7401402;19;20729;-73
2023/04/06 12:34:54;;;;;;;8.55;2.42;;;18.60;90.20;;;;;;7402490;19;19942;-73
2023/04/06 12:37:20;;;;;;;6.43;1.77;;;18.20;90.20;;;;;;7402411;19;19926;-73
2023/04/06 12:39:46;;;;;;;5.30;1.95;;;17.90;89.60;;;;;;7403647;19;19914;-72
2023/04/06 12:42:13;;;;;;;5.72;2.10;;;18.70;86.30;;;;;;7382794;19;19928;-72
2023/04/06 12:44:39;;;;;;;6.28;1.55;;;18.50;86.00;;;;;;7400777;19;19922;-73